sensor_id;sensor_type;location;lat;lon;timestamp;temperature;humidity
26655;DHT22;14278;50.784;4.630;2023-04-21T00:00:57;8.40;99.90
26655;DHT22;14278;50.784;4.630;2023-04-21T00:03:24;8.50;99.90
26655;DHT22;14278;50.784;4.630;2023-04-21T00:05:54;8.20;99.90
26655;DHT22;14278;50.784;4.630;2023-04-21T00:08:23;8.20;99.90
26655;DHT22;14278;50.784;4.630;2023-04-21T00:10:49;8.60;99.90
26655;DHT22;14278;50.784;4.630;2023-04-21T00:13:14;8.40;99.90
26655;DHT22;14278;50.784;4.630;2023-04-21T00:15:40;8.60;99.90
26655;DHT22;14278;50.784;4.630;2023-04-21T00:18:07;8.60;99.90
26655;DHT22;14278;50.784;4.630;2023-04-21T00:20:34;9.00;99.90
26655;DHT22;14278;50.784;4.630;2023-04-21T00:23:01;9.00;99.90
26655;DHT22;14278;50.784;4.630;2023-04-21T00:25:27;9.00;99.90
26655;DHT22;14278;50.784;4.630;2023-04-21T00:27:53;8.90;99.90
26655;DHT22;14278;50.784;4.630;2023-04-21T00:30:20;9.10;99.90
26655;DHT22;14278;50.784;4.630;2023-04-21T00:32:46;9.10;99.90
26655;DHT22;14278;50.784;4.630;2023-04-21T00:35:11;8.70;99.90
26655;DHT22;14278;50.784;4.630;2023-04-21T00:37:37;8.50;99.90
26655;DHT22;14278;50.784;4.630;2023-04-21T00:40:05;8.60;99.90
26655;DHT22;14278;50.784;4.630;2023-04-21T00:42:31;8.40;99.90
26655;DHT22;14278;50.784;4.630;2023-04-21T00:44:57;8.60;99.90
26655;DHT22;14278;50.784;4.630;2023-04-21T00:47:23;8.80;99.90
26655;DHT22;14278;50.784;4.630;2023-04-21T00:49:49;9.00;99.90
26655;DHT22;14278;50.784;4.630;2023-04-21T00:52:16;9.10;99.90
26655;DHT22;14278;50.784;4.630;2023-04-21T00:54:43;9.10;99.90
26655;DHT22;14278;50.784;4.630;2023-04-21T00:57:10;9.10;99.90
26655;DHT22;14278;50.784;4.630;2023-04-21T00:59:36;8.90;99.90
26655;DHT22;14278;50.784;4.630;2023-04-21T01:02:02;8.40;99.90
26655;DHT22;14278;50.784;4.630;2023-04-21T01:04:28;8.80;99.90
26655;DHT22;14278;50.784;4.630;2023-04-21T01:07:00;8.80;99.90
26655;DHT22;14278;50.784;4.630;2023-04-21T01:09:26;8.40;99.90
26655;DHT22;14278;50.784;4.630;2023-04-21T01:12:08;8.60;99.90
26655;DHT22;14278;50.784;4.630;2023-04-21T01:14:35;8.50;99.90
26655;DHT22;14278;50.784;4.630;2023-04-21T01:17:01;7.90;99.90
26655;DHT22;14278;50.784;4.630;2023-04-21T01:19:36;8.10;99.90
26655;DHT22;14278;50.784;4.630;2023-04-21T01:22:09;8.30;99.90
26655;DHT22;14278;50.784;4.630;2023-04-21T01:24:41;8.50;99.90
26655;DHT22;14278;50.784;4.630;2023-04-21T01:27:13;8.40;99.90
26655;DHT22;14278;50.784;4.630;2023-04-21T01:29:41;8.50;99.90
26655;DHT22;14278;50.784;4.630;2023-04-21T01:32:09;8.50;99.90
26655;DHT22;14278;50.784;4.630;2023-04-21T01:34:36;8.30;99.90
26655;DHT22;14278;50.784;4.630;2023-04-21T01:37:02;8.10;99.90
26655;DHT22;14278;50.784;4.630;2023-04-21T01:39:28;7.70;99.90
26655;DHT22;14278;50.784;4.630;2023-04-21T01:41:55;7.80;99.90
26655;DHT22;14278;50.784;4.630;2023-04-21T01:44:23;8.50;99.90
26655;DHT22;14278;50.784;4.630;2023-04-21T01:46:49;8.00;99.90
26655;DHT22;14278;50.784;4.630;2023-04-21T01:49:16;7.60;99.90
26655;DHT22;14278;50.784;4.630;2023-04-21T01:51:42;7.50;99.90
26655;DHT22;14278;50.784;4.630;2023-04-21T01:54:08;7.70;99.90
26655;DHT22;14278;50.784;4.630;2023-04-21T01:56:34;8.20;99.90
26655;DHT22;14278;50.784;4.630;2023-04-21T01:59:00;8.10;99.90
26655;DHT22;14278;50.784;4.630;2023-04-21T02:01:26;8.20;99.90
26655;DHT22;14278;50.784;4.630;2023-04-21T02:03:52;8.30;99.90
26655;DHT22;14278;50.784;4.630;2023-04-21T02:06:18;8.10;99.90
26655;DHT22;14278;50.784;4.630;2023-04-21T02:08:44;7.90;99.90
26655;DHT22;14278;50.784;4.630;2023-04-21T02:11:10;7.80;99.90
26655;DHT22;14278;50.784;4.630;2023-04-21T02:13:36;7.80;99.90
26655;DHT22;14278;50.784;4.630;2023-04-21T02:16:01;7.50;99.90
26655;DHT22;14278;50.784;4.630;2023-04-21T02:18:27;7.80;99.90
26655;DHT22;14278;50.784;4.630;2023-04-21T02:20:54;7.90;99.90
26655;DHT22;14278;50.784;4.630;2023-04-21T02:23:21;7.80;99.90
26655;DHT22;14278;50.784;4.630;2023-04-21T02:25:46;7.60;99.90
26655;DHT22;14278;50.784;4.630;2023-04-21T02:28:12;8.10;99.90
26655;DHT22;14278;50.784;4.630;2023-04-21T02:30:38;8.30;99.90
26655;DHT22;14278;50.784;4.630;2023-04-21T02:33:04;7.80;99.90
26655;DHT22;14278;50.784;4.630;2023-04-21T02:35:30;7.40;99.90
26655;DHT22;14278;50.784;4.630;2023-04-21T02:37:58;7.30;99.90
26655;DHT22;14278;50.784;4.630;2023-04-21T02:40:24;7.60;99.90
26655;DHT22;14278;50.784;4.630;2023-04-21T02:42:50;7.70;99.90
26655;DHT22;14278;50.784;4.630;2023-04-21T02:45:16;7.60;99.90
26655;DHT22;14278;50.784;4.630;2023-04-21T02:47:42;7.90;99.90
26655;DHT22;14278;50.784;4.630;2023-04-21T02:50:08;8.10;99.90
26655;DHT22;14278;50.784;4.630;2023-04-21T02:52:37;7.60;99.90
26655;DHT22;14278;50.784;4.630;2023-04-21T02:55:02;7.50;99.90
26655;DHT22;14278;50.784;4.630;2023-04-21T02:57:29;7.40;99.90
26655;DHT22;14278;50.784;4.630;2023-04-21T02:59:54;7.60;99.90
26655;DHT22;14278;50.784;4.630;2023-04-21T03:02:20;7.40;99.90
26655;DHT22;14278;50.784;4.630;2023-04-21T03:04:46;7.30;99.90
26655;DHT22;14278;50.784;4.630;2023-04-21T03:07:12;7.60;99.90
26655;DHT22;14278;50.784;4.630;2023-04-21T03:09:39;7.70;99.90
26655;DHT22;14278;50.784;4.630;2023-04-21T03:12:05;7.70;99.90
26655;DHT22;14278;50.784;4.630;2023-04-21T03:14:31;7.70;99.90
26655;DHT22;14278;50.784;4.630;2023-04-21T03:16:57;7.90;99.90
26655;DHT22;14278;50.784;4.630;2023-04-21T03:19:22;7.60;99.90
26655;DHT22;14278;50.784;4.630;2023-04-21T03:21:49;7.90;99.90
26655;DHT22;14278;50.784;4.630;2023-04-21T03:24:14;7.80;99.90
26655;DHT22;14278;50.784;4.630;2023-04-21T03:26:40;8.20;99.90
26655;DHT22;14278;50.784;4.630;2023-04-21T03:29:06;8.40;99.90
26655;DHT22;14278;50.784;4.630;2023-04-21T03:31:32;8.50;99.90
26655;DHT22;14278;50.784;4.630;2023-04-21T03:33:58;8.20;99.90
26655;DHT22;14278;50.784;4.630;2023-04-21T03:36:24;8.00;99.90
26655;DHT22;14278;50.784;4.630;2023-04-21T03:38:50;7.90;99.90
26655;DHT22;14278;50.784;4.630;2023-04-21T03:41:15;8.30;99.90
26655;DHT22;14278;50.784;4.630;2023-04-21T03:43:41;8.30;99.90
26655;DHT22;14278;50.784;4.630;2023-04-21T03:46:15;8.00;99.90
26655;DHT22;14278;50.784;4.630;2023-04-21T03:48:41;7.90;99.90
26655;DHT22;14278;50.784;4.630;2023-04-21T03:51:07;7.80;99.90
26655;DHT22;14278;50.784;4.630;2023-04-21T03:53:32;7.60;99.90
26655;DHT22;14278;50.784;4.630;2023-04-21T03:55:58;7.40;99.90
26655;DHT22;14278;50.784;4.630;2023-04-21T03:58:24;7.60;99.90
26655;DHT22;14278;50.784;4.630;2023-04-21T04:00:50;7.50;99.90
26655;DHT22;14278;50.784;4.630;2023-04-21T04:03:16;7.40;99.90
26655;DHT22;14278;50.784;4.630;2023-04-21T04:05:42;7.50;99.90
26655;DHT22;14278;50.784;4.630;2023-04-21T04:08:07;7.20;99.90
26655;DHT22;14278;50.784;4.630;2023-04-21T04:10:33;7.20;99.90
26655;DHT22;14278;50.784;4.630;2023-04-21T04:12:59;7.10;99.90
26655;DHT22;14278;50.784;4.630;2023-04-21T04:15:25;7.30;99.90
26655;DHT22;14278;50.784;4.630;2023-04-21T04:17:51;7.10;99.90
26655;DHT22;14278;50.784;4.630;2023-04-21T04:20:17;7.40;99.90
26655;DHT22;14278;50.784;4.630;2023-04-21T04:22:43;7.10;99.90
26655;DHT22;14278;50.784;4.630;2023-04-21T04:25:09;7.10;99.90
26655;DHT22;14278;50.784;4.630;2023-04-21T04:27:37;7.20;99.90
26655;DHT22;14278;50.784;4.630;2023-04-21T04:30:03;7.50;99.90
26655;DHT22;14278;50.784;4.630;2023-04-21T04:32:30;7.40;99.90
26655;DHT22;14278;50.784;4.630;2023-04-21T04:34:56;7.10;99.90
26655;DHT22;14278;50.784;4.630;2023-04-21T04:37:23;7.20;99.90
26655;DHT22;14278;50.784;4.630;2023-04-21T04:39:53;7.50;99.90
26655;DHT22;14278;50.784;4.630;2023-04-21T04:42:19;7.40;99.90
26655;DHT22;14278;50.784;4.630;2023-04-21T04:44:45;7.60;99.90
26655;DHT22;14278;50.784;4.630;2023-04-21T04:47:12;7.50;99.90
26655;DHT22;14278;50.784;4.630;2023-04-21T04:49:37;7.70;99.90
26655;DHT22;14278;50.784;4.630;2023-04-21T04:52:03;7.80;99.90
26655;DHT22;14278;50.784;4.630;2023-04-21T04:54:29;7.50;99.90
26655;DHT22;14278;50.784;4.630;2023-04-21T04:56:55;7.60;99.90
26655;DHT22;14278;50.784;4.630;2023-04-21T04:59:22;7.60;99.90
26655;DHT22;14278;50.784;4.630;2023-04-21T05:01:48;7.50;99.90
26655;DHT22;14278;50.784;4.630;2023-04-21T05:04:14;7.50;99.90
26655;DHT22;14278;50.784;4.630;2023-04-21T05:06:41;7.50;99.90
26655;DHT22;14278;50.784;4.630;2023-04-21T05:09:07;7.40;99.90
26655;DHT22;14278;50.784;4.630;2023-04-21T05:11:34;7.60;99.90
26655;DHT22;14278;50.784;4.630;2023-04-21T05:14:00;7.60;99.90
26655;DHT22;14278;50.784;4.630;2023-04-21T05:16:26;7.90;99.90
26655;DHT22;14278;50.784;4.630;2023-04-21T05:18:51;7.90;99.90
26655;DHT22;14278;50.784;4.630;2023-04-21T05:21:27;7.90;99.90
26655;DHT22;14278;50.784;4.630;2023-04-21T05:23:54;7.90;99.90
26655;DHT22;14278;50.784;4.630;2023-04-21T05:26:20;7.80;99.90
26655;DHT22;14278;50.784;4.630;2023-04-21T05:28:46;7.70;99.90
26655;DHT22;14278;50.784;4.630;2023-04-21T05:31:12;7.90;99.90
26655;DHT22;14278;50.784;4.630;2023-04-21T05:33:38;7.90;99.90
26655;DHT22;14278;50.784;4.630;2023-04-21T05:36:07;8.10;99.90
26655;DHT22;14278;50.784;4.630;2023-04-21T05:38:34;8.40;99.90
26655;DHT22;14278;50.784;4.630;2023-04-21T05:41:00;8.50;99.90
26655;DHT22;14278;50.784;4.630;2023-04-21T05:43:25;8.70;99.90
26655;DHT22;14278;50.784;4.630;2023-04-21T05:45:52;8.90;99.90
26655;DHT22;14278;50.784;4.630;2023-04-21T05:48:17;8.80;99.90
26655;DHT22;14278;50.784;4.630;2023-04-21T05:50:43;9.20;99.90
26655;DHT22;14278;50.784;4.630;2023-04-21T05:53:09;9.60;99.90
26655;DHT22;14278;50.784;4.630;2023-04-21T05:55:35;9.80;99.90
26655;DHT22;14278;50.784;4.630;2023-04-21T05:58:02;10.00;99.90
26655;DHT22;14278;50.784;4.630;2023-04-21T06:00:28;10.10;99.90
26655;DHT22;14278;50.784;4.630;2023-04-21T06:02:54;10.60;99.90
26655;DHT22;14278;50.784;4.630;2023-04-21T06:05:20;11.40;99.90
26655;DHT22;14278;50.784;4.630;2023-04-21T06:07:46;12.10;99.90
26655;DHT22;14278;50.784;4.630;2023-04-21T06:10:13;12.30;99.90
26655;DHT22;14278;50.784;4.630;2023-04-21T06:12:39;12.60;99.90
26655;DHT22;14278;50.784;4.630;2023-04-21T06:15:05;12.30;99.90
26655;DHT22;14278;50.784;4.630;2023-04-21T06:17:31;11.60;99.90
26655;DHT22;14278;50.784;4.630;2023-04-21T06:19:57;10.50;99.90
26655;DHT22;14278;50.784;4.630;2023-04-21T06:22:23;11.40;99.90
26655;DHT22;14278;50.784;4.630;2023-04-21T06:24:49;12.30;99.90
26655;DHT22;14278;50.784;4.630;2023-04-21T06:27:15;12.40;99.90
26655;DHT22;14278;50.784;4.630;2023-04-21T06:29:41;12.50;99.90
26655;DHT22;14278;50.784;4.630;2023-04-21T06:32:07;12.80;99.90
26655;DHT22;14278;50.784;4.630;2023-04-21T06:34:33;14.30;99.90
26655;DHT22;14278;50.784;4.630;2023-04-21T06:37:00;15.80;99.90
26655;DHT22;14278;50.784;4.630;2023-04-21T06:39:26;17.00;99.90
26655;DHT22;14278;50.784;4.630;2023-04-21T06:41:52;18.20;99.90
26655;DHT22;14278;50.784;4.630;2023-04-21T06:44:18;19.70;99.90
26655;DHT22;14278;50.784;4.630;2023-04-21T06:46:44;20.00;99.90
26655;DHT22;14278;50.784;4.630;2023-04-21T06:49:11;21.50;99.90
26655;DHT22;14278;50.784;4.630;2023-04-21T06:51:37;22.10;99.90
26655;DHT22;14278;50.784;4.630;2023-04-21T06:54:03;23.00;99.90
26655;DHT22;14278;50.784;4.630;2023-04-21T06:56:30;23.90;99.90
26655;DHT22;14278;50.784;4.630;2023-04-21T06:58:56;23.40;99.90
26655;DHT22;14278;50.784;4.630;2023-04-21T07:01:22;22.50;99.90
26655;DHT22;14278;50.784;4.630;2023-04-21T07:03:50;22.20;99.90
26655;DHT22;14278;50.784;4.630;2023-04-21T07:06:16;22.30;99.90
26655;DHT22;14278;50.784;4.630;2023-04-21T07:08:42;21.90;99.90
26655;DHT22;14278;50.784;4.630;2023-04-21T07:11:09;21.60;99.90
26655;DHT22;14278;50.784;4.630;2023-04-21T07:13:34;21.90;99.90
26655;DHT22;14278;50.784;4.630;2023-04-21T07:16:00;18.40;99.90
26655;DHT22;14278;50.784;4.630;2023-04-21T07:18:26;18.40;99.90
26655;DHT22;14278;50.784;4.630;2023-04-21T07:20:52;18.40;99.90
26655;DHT22;14278;50.784;4.630;2023-04-21T07:23:18;18.80;99.90
26655;DHT22;14278;50.784;4.630;2023-04-21T07:25:44;20.40;99.90
26655;DHT22;14278;50.784;4.630;2023-04-21T07:28:10;20.30;99.90
26655;DHT22;14278;50.784;4.630;2023-04-21T07:30:36;21.60;99.90
26655;DHT22;14278;50.784;4.630;2023-04-21T07:33:02;22.30;99.90
26655;DHT22;14278;50.784;4.630;2023-04-21T07:35:28;22.70;99.90
26655;DHT22;14278;50.784;4.630;2023-04-21T07:37:55;22.90;99.90
26655;DHT22;14278;50.784;4.630;2023-04-21T07:40:21;24.10;99.90
26655;DHT22;14278;50.784;4.630;2023-04-21T07:42:47;24.40;99.90
26655;DHT22;14278;50.784;4.630;2023-04-21T07:45:12;22.10;99.90
26655;DHT22;14278;50.784;4.630;2023-04-21T07:47:39;21.80;99.90
26655;DHT22;14278;50.784;4.630;2023-04-21T07:50:05;22.30;99.90
26655;DHT22;14278;50.784;4.630;2023-04-21T07:52:31;21.70;99.90
26655;DHT22;14278;50.784;4.630;2023-04-21T07:54:56;21.90;99.90
26655;DHT22;14278;50.784;4.630;2023-04-21T07:57:22;23.20;99.90
26655;DHT22;14278;50.784;4.630;2023-04-21T07:59:48;23.40;99.90
26655;DHT22;14278;50.784;4.630;2023-04-21T08:02:14;20.70;99.90
26655;DHT22;14278;50.784;4.630;2023-04-21T08:04:40;20.90;99.90
26655;DHT22;14278;50.784;4.630;2023-04-21T08:07:06;20.50;99.90
26655;DHT22;14278;50.784;4.630;2023-04-21T08:09:34;21.20;99.90
26655;DHT22;14278;50.784;4.630;2023-04-21T08:12:00;22.30;99.90
26655;DHT22;14278;50.784;4.630;2023-04-21T08:14:27;22.60;99.90
26655;DHT22;14278;50.784;4.630;2023-04-21T08:16:53;22.30;99.90
26655;DHT22;14278;50.784;4.630;2023-04-21T08:19:19;21.30;99.90
26655;DHT22;14278;50.784;4.630;2023-04-21T08:21:44;20.40;99.90
26655;DHT22;14278;50.784;4.630;2023-04-21T08:24:11;21.00;99.90
26655;DHT22;14278;50.784;4.630;2023-04-21T08:26:37;21.20;99.90
26655;DHT22;14278;50.784;4.630;2023-04-21T08:29:03;21.20;99.90
26655;DHT22;14278;50.784;4.630;2023-04-21T08:31:31;21.20;99.90
26655;DHT22;14278;50.784;4.630;2023-04-21T08:33:57;21.00;99.90
26655;DHT22;14278;50.784;4.630;2023-04-21T08:36:23;20.40;99.90
26655;DHT22;14278;50.784;4.630;2023-04-21T08:38:49;19.10;99.90
26655;DHT22;14278;50.784;4.630;2023-04-21T08:41:15;18.70;99.90
26655;DHT22;14278;50.784;4.630;2023-04-21T08:43:41;19.20;99.90
26655;DHT22;14278;50.784;4.630;2023-04-21T08:46:07;19.40;99.90
26655;DHT22;14278;50.784;4.630;2023-04-21T08:48:38;19.60;99.90
26655;DHT22;14278;50.784;4.630;2023-04-21T08:51:07;20.70;99.90
26655;DHT22;14278;50.784;4.630;2023-04-21T08:53:35;20.80;99.90
26655;DHT22;14278;50.784;4.630;2023-04-21T08:56:02;20.00;99.90
26655;DHT22;14278;50.784;4.630;2023-04-21T08:58:28;17.80;99.90
26655;DHT22;14278;50.784;4.630;2023-04-21T09:00:54;17.20;99.90
26655;DHT22;14278;50.784;4.630;2023-04-21T09:03:27;18.50;99.90
26655;DHT22;14278;50.784;4.630;2023-04-21T09:05:57;18.30;99.90
26655;DHT22;14278;50.784;4.630;2023-04-21T09:08:24;17.60;99.90
26655;DHT22;14278;50.784;4.630;2023-04-21T09:10:51;18.20;99.90
26655;DHT22;14278;50.784;4.630;2023-04-21T09:13:18;19.00;99.90
26655;DHT22;14278;50.784;4.630;2023-04-21T09:15:46;19.50;99.90
26655;DHT22;14278;50.784;4.630;2023-04-21T09:18:18;19.30;99.90
26655;DHT22;14278;50.784;4.630;2023-04-21T09:20:45;18.30;99.90
26655;DHT22;14278;50.784;4.630;2023-04-21T09:23:12;15.60;99.90
26655;DHT22;14278;50.784;4.630;2023-04-21T09:25:39;16.00;99.90
26655;DHT22;14278;50.784;4.630;2023-04-21T09:28:10;16.30;99.90
26655;DHT22;14278;50.784;4.630;2023-04-21T09:30:36;17.40;99.90
26655;DHT22;14278;50.784;4.630;2023-04-21T09:33:03;18.10;99.90
26655;DHT22;14278;50.784;4.630;2023-04-21T09:35:33;18.70;99.90
26655;DHT22;14278;50.784;4.630;2023-04-21T09:38:00;18.70;99.90
26655;DHT22;14278;50.784;4.630;2023-04-21T09:40:30;18.80;99.90
26655;DHT22;14278;50.784;4.630;2023-04-21T09:42:56;18.80;99.90
26655;DHT22;14278;50.784;4.630;2023-04-21T09:45:25;18.20;99.90
26655;DHT22;14278;50.784;4.630;2023-04-21T09:47:57;18.60;99.90
26655;DHT22;14278;50.784;4.630;2023-04-21T09:50:24;17.80;99.90
26655;DHT22;14278;50.784;4.630;2023-04-21T09:52:51;17.60;99.90
26655;DHT22;14278;50.784;4.630;2023-04-21T09:55:20;17.30;99.90
26655;DHT22;14278;50.784;4.630;2023-04-21T09:57:47;15.60;99.90
26655;DHT22;14278;50.784;4.630;2023-04-21T10:00:14;15.60;99.90
26655;DHT22;14278;50.784;4.630;2023-04-21T10:02:49;16.80;99.90
26655;DHT22;14278;50.784;4.630;2023-04-21T10:05:15;16.80;99.90
26655;DHT22;14278;50.784;4.630;2023-04-21T10:07:43;17.30;99.90
26655;DHT22;14278;50.784;4.630;2023-04-21T10:12:47;17.10;99.90
26655;DHT22;14278;50.784;4.630;2023-04-21T10:15:32;17.00;99.90
26655;DHT22;14278;50.784;4.630;2023-04-21T10:18:22;18.80;99.90
26655;DHT22;14278;50.784;4.630;2023-04-21T10:21:16;18.40;99.90
26655;DHT22;14278;50.784;4.630;2023-04-21T10:23:46;19.00;99.90
26655;DHT22;14278;50.784;4.630;2023-04-21T10:26:12;19.60;99.90
26655;DHT22;14278;50.784;4.630;2023-04-21T10:28:45;20.00;99.90
26655;DHT22;14278;50.784;4.630;2023-04-21T10:36:34;19.30;99.90
26655;DHT22;14278;50.784;4.630;2023-04-21T10:39:01;19.20;99.90
26655;DHT22;14278;50.784;4.630;2023-04-21T10:41:32;19.20;99.90
26655;DHT22;14278;50.784;4.630;2023-04-21T10:49:09;18.80;99.90
26655;DHT22;14278;50.784;4.630;2023-04-21T10:54:41;18.50;99.90
26655;DHT22;14278;50.784;4.630;2023-04-21T10:57:09;18.10;99.90
26655;DHT22;14278;50.784;4.630;2023-04-21T10:59:36;19.70;99.90
26655;DHT22;14278;50.784;4.630;2023-04-21T11:02:04;21.80;99.90
26655;DHT22;14278;50.784;4.630;2023-04-21T11:04:32;22.90;99.90
26655;DHT22;14278;50.784;4.630;2023-04-21T11:07:12;22.10;99.90
26655;DHT22;14278;50.784;4.630;2023-04-21T11:09:39;19.90;99.90
26655;DHT22;14278;50.784;4.630;2023-04-21T11:12:07;20.70;99.90
26655;DHT22;14278;50.784;4.630;2023-04-21T11:14:36;19.20;99.90
26655;DHT22;14278;50.784;4.630;2023-04-21T11:17:03;17.70;99.90
26655;DHT22;14278;50.784;4.630;2023-04-21T11:19:32;19.20;99.90
26655;DHT22;14278;50.784;4.630;2023-04-21T11:21:58;20.70;99.90
26655;DHT22;14278;50.784;4.630;2023-04-21T11:24:24;20.90;99.90
26655;DHT22;14278;50.784;4.630;2023-04-21T11:26:50;21.40;99.90
26655;DHT22;14278;50.784;4.630;2023-04-21T11:29:17;21.70;99.90
26655;DHT22;14278;50.784;4.630;2023-04-21T11:31:44;22.20;99.90
26655;DHT22;14278;50.784;4.630;2023-04-21T11:34:13;22.10;99.90
26655;DHT22;14278;50.784;4.630;2023-04-21T11:36:42;21.20;99.90
26655;DHT22;14278;50.784;4.630;2023-04-21T11:39:09;21.90;99.90
26655;DHT22;14278;50.784;4.630;2023-04-21T11:41:41;22.30;99.90
26655;DHT22;14278;50.784;4.630;2023-04-21T11:44:11;23.90;99.90
26655;DHT22;14278;50.784;4.630;2023-04-21T11:46:44;24.30;99.90
26655;DHT22;14278;50.784;4.630;2023-04-21T11:49:13;25.20;99.90
26655;DHT22;14278;50.784;4.630;2023-04-21T11:51:43;24.10;97.10
26655;DHT22;14278;50.784;4.630;2023-04-21T11:54:12;23.50;97.10
26655;DHT22;14278;50.784;4.630;2023-04-21T11:56:46;23.50;96.50
26655;DHT22;14278;50.784;4.630;2023-04-21T11:59:14;21.70;95.70
26655;DHT22;14278;50.784;4.630;2023-04-21T12:01:49;21.70;96.60
26655;DHT22;14278;50.784;4.630;2023-04-21T12:04:16;21.90;99.00
26655;DHT22;14278;50.784;4.630;2023-04-21T12:06:44;21.70;96.60
26655;DHT22;14278;50.784;4.630;2023-04-21T12:09:20;20.70;98.90
26655;DHT22;14278;50.784;4.630;2023-04-21T12:11:51;19.80;99.80
26655;DHT22;14278;50.784;4.630;2023-04-21T12:14:19;19.60;99.90
26655;DHT22;14278;50.784;4.630;2023-04-21T12:16:51;19.00;99.90
26655;DHT22;14278;50.784;4.630;2023-04-21T12:19:37;18.00;99.90
26655;DHT22;14278;50.784;4.630;2023-04-21T12:22:11;17.80;99.90
26655;DHT22;14278;50.784;4.630;2023-04-21T12:24:38;18.60;99.90
26655;DHT22;14278;50.784;4.630;2023-04-21T12:27:04;18.80;99.90
26655;DHT22;14278;50.784;4.630;2023-04-21T12:29:31;19.00;99.90
26655;DHT22;14278;50.784;4.630;2023-04-21T12:32:00;19.10;99.90
26655;DHT22;14278;50.784;4.630;2023-04-21T12:34:25;19.10;99.90
26655;DHT22;14278;50.784;4.630;2023-04-21T12:36:51;18.80;99.90
26655;DHT22;14278;50.784;4.630;2023-04-21T12:39:17;18.70;99.90
26655;DHT22;14278;50.784;4.630;2023-04-21T12:41:44;18.70;99.90
26655;DHT22;14278;50.784;4.630;2023-04-21T12:44:12;18.00;99.90
26655;DHT22;14278;50.784;4.630;2023-04-21T12:46:38;18.20;99.90
26655;DHT22;14278;50.784;4.630;2023-04-21T12:49:05;18.20;99.90
26655;DHT22;14278;50.784;4.630;2023-04-21T12:51:32;18.50;99.90
26655;DHT22;14278;50.784;4.630;2023-04-21T12:53:58;18.10;99.90
26655;DHT22;14278;50.784;4.630;2023-04-21T12:56:25;18.00;99.90
26655;DHT22;14278;50.784;4.630;2023-04-21T12:58:51;18.50;99.90
26655;DHT22;14278;50.784;4.630;2023-04-21T13:01:19;19.10;99.90
26655;DHT22;14278;50.784;4.630;2023-04-21T13:03:45;19.10;99.90
26655;DHT22;14278;50.784;4.630;2023-04-21T13:06:11;19.40;99.90
26655;DHT22;14278;50.784;4.630;2023-04-21T13:08:38;19.40;99.90
26655;DHT22;14278;50.784;4.630;2023-04-21T13:11:04;19.70;99.90
26655;DHT22;14278;50.784;4.630;2023-04-21T13:13:30;18.60;99.90
26655;DHT22;14278;50.784;4.630;2023-04-21T13:15:56;19.50;99.90
26655;DHT22;14278;50.784;4.630;2023-04-21T13:18:22;18.90;99.90
26655;DHT22;14278;50.784;4.630;2023-04-21T13:20:52;17.90;99.90
26655;DHT22;14278;50.784;4.630;2023-04-21T13:23:18;17.60;99.90
26655;DHT22;14278;50.784;4.630;2023-04-21T13:25:43;17.60;99.90
26655;DHT22;14278;50.784;4.630;2023-04-21T13:28:10;18.20;99.90
26655;DHT22;14278;50.784;4.630;2023-04-21T13:30:38;17.60;99.90
26655;DHT22;14278;50.784;4.630;2023-04-21T13:33:05;18.20;99.90
26655;DHT22;14278;50.784;4.630;2023-04-21T13:35:31;18.00;99.90
26655;DHT22;14278;50.784;4.630;2023-04-21T13:37:56;18.30;99.90
26655;DHT22;14278;50.784;4.630;2023-04-21T13:40:22;19.00;99.90
26655;DHT22;14278;50.784;4.630;2023-04-21T13:42:48;19.20;99.90
26655;DHT22;14278;50.784;4.630;2023-04-21T13:45:15;19.30;99.90
26655;DHT22;14278;50.784;4.630;2023-04-21T13:47:42;19.40;99.90
26655;DHT22;14278;50.784;4.630;2023-04-21T13:50:08;19.40;99.90
26655;DHT22;14278;50.784;4.630;2023-04-21T13:52:34;19.30;99.90
26655;DHT22;14278;50.784;4.630;2023-04-21T13:55:01;18.20;99.90
26655;DHT22;14278;50.784;4.630;2023-04-21T13:57:27;18.80;99.90
26655;DHT22;14278;50.784;4.630;2023-04-21T13:59:53;18.50;99.90
26655;DHT22;14278;50.784;4.630;2023-04-21T14:02:19;18.20;99.90
26655;DHT22;14278;50.784;4.630;2023-04-21T14:04:50;17.90;99.90
26655;DHT22;14278;50.784;4.630;2023-04-21T14:07:16;17.80;99.90
26655;DHT22;14278;50.784;4.630;2023-04-21T14:09:44;18.00;99.90
26655;DHT22;14278;50.784;4.630;2023-04-21T14:12:10;18.30;99.90
26655;DHT22;14278;50.784;4.630;2023-04-21T14:14:36;18.30;99.90
26655;DHT22;14278;50.784;4.630;2023-04-21T14:17:02;18.30;99.90
26655;DHT22;14278;50.784;4.630;2023-04-21T14:19:28;17.80;99.90
26655;DHT22;14278;50.784;4.630;2023-04-21T14:21:56;17.40;99.90
26655;DHT22;14278;50.784;4.630;2023-04-21T14:24:22;17.50;99.90
26655;DHT22;14278;50.784;4.630;2023-04-21T14:26:48;17.50;99.90
26655;DHT22;14278;50.784;4.630;2023-04-21T14:29:14;17.70;99.90
26655;DHT22;14278;50.784;4.630;2023-04-21T14:31:40;17.70;99.90
26655;DHT22;14278;50.784;4.630;2023-04-21T14:34:06;17.60;99.90
26655;DHT22;14278;50.784;4.630;2023-04-21T14:36:32;17.40;99.90
26655;DHT22;14278;50.784;4.630;2023-04-21T14:38:58;17.50;99.90
26655;DHT22;14278;50.784;4.630;2023-04-21T14:41:23;17.40;99.90
26655;DHT22;14278;50.784;4.630;2023-04-21T14:43:49;17.60;99.90
26655;DHT22;14278;50.784;4.630;2023-04-21T14:46:18;17.80;99.90
26655;DHT22;14278;50.784;4.630;2023-04-21T14:48:44;17.80;99.90
26655;DHT22;14278;50.784;4.630;2023-04-21T14:51:10;17.80;99.90
26655;DHT22;14278;50.784;4.630;2023-04-21T14:53:36;17.80;99.90
26655;DHT22;14278;50.784;4.630;2023-04-21T14:56:01;17.90;99.90
26655;DHT22;14278;50.784;4.630;2023-04-21T14:58:28;18.10;99.90
26655;DHT22;14278;50.784;4.630;2023-04-21T15:00:54;18.40;99.90
26655;DHT22;14278;50.784;4.630;2023-04-21T15:03:20;18.40;99.90
26655;DHT22;14278;50.784;4.630;2023-04-21T15:05:46;18.00;99.90
26655;DHT22;14278;50.784;4.630;2023-04-21T15:08:11;18.10;99.90
26655;DHT22;14278;50.784;4.630;2023-04-21T15:10:43;17.80;99.90
26655;DHT22;14278;50.784;4.630;2023-04-21T15:13:09;18.00;99.90
26655;DHT22;14278;50.784;4.630;2023-04-21T15:15:36;18.10;99.90
26655;DHT22;14278;50.784;4.630;2023-04-21T15:18:02;18.10;99.90
26655;DHT22;14278;50.784;4.630;2023-04-21T15:20:27;17.90;99.90
26655;DHT22;14278;50.784;4.630;2023-04-21T15:22:54;18.40;99.90
26655;DHT22;14278;50.784;4.630;2023-04-21T15:25:20;18.20;99.90
26655;DHT22;14278;50.784;4.630;2023-04-21T15:27:46;18.00;99.90
26655;DHT22;14278;50.784;4.630;2023-04-21T15:30:12;18.30;99.90
26655;DHT22;14278;50.784;4.630;2023-04-21T15:32:38;17.60;99.90
26655;DHT22;14278;50.784;4.630;2023-04-21T15:35:05;17.50;99.90
26655;DHT22;14278;50.784;4.630;2023-04-21T15:37:31;17.40;99.90
26655;DHT22;14278;50.784;4.630;2023-04-21T15:39:57;17.10;99.90
26655;DHT22;14278;50.784;4.630;2023-04-21T15:42:23;16.80;99.90
26655;DHT22;14278;50.784;4.630;2023-04-21T15:44:49;16.80;99.90
26655;DHT22;14278;50.784;4.630;2023-04-21T15:47:17;16.90;99.90
26655;DHT22;14278;50.784;4.630;2023-04-21T15:49:42;16.60;99.90
26655;DHT22;14278;50.784;4.630;2023-04-21T15:52:08;16.60;99.90